sensor_id;sensor_type;location;lat;lon;timestamp;P1;durP1;ratioP1;P2;durP2;ratioP2
20038;SDS011;21737;42.868;25.320;2022-11-20T00:01:48;15.40;;;6.30;;
20038;SDS011;21737;42.868;25.320;2022-11-20T00:04:49;15.40;;;5.90;;
20038;SDS011;21737;42.868;25.320;2022-11-20T00:07:51;14.87;;;5.90;;
20038;SDS011;21737;42.868;25.320;2022-11-20T00:10:53;11.97;;;5.87;;
20038;SDS011;21737;42.868;25.320;2022-11-20T00:13:55;11.47;;;4.73;;
20038;SDS011;21737;42.868;25.320;2022-11-20T00:16:58;12.17;;;5.23;;
20038;SDS011;21737;42.868;25.320;2022-11-20T00:20:00;11.13;;;4.90;;
20038;SDS011;21737;42.868;25.320;2022-11-20T00:23:01;13.60;;;5.17;;
20038;SDS011;21737;42.868;25.320;2022-11-20T00:26:07;13.97;;;5.20;;
20038;SDS011;21737;42.868;25.320;2022-11-20T00:29:09;16.87;;;5.23;;
20038;SDS011;21737;42.868;25.320;2022-11-20T00:32:11;12.77;;;5.00;;
20038;SDS011;21737;42.868;25.320;2022-11-20T00:35:13;14.80;;;5.43;;
20038;SDS011;21737;42.868;25.320;2022-11-20T00:38:15;12.70;;;5.27;;
20038;SDS011;21737;42.868;25.320;2022-11-20T00:41:16;11.60;;;4.73;;
20038;SDS011;21737;42.868;25.320;2022-11-20T00:44:18;12.80;;;5.43;;
20038;SDS011;21737;42.868;25.320;2022-11-20T00:47:19;10.70;;;5.10;;
20038;SDS011;21737;42.868;25.320;2022-11-20T00:50:21;10.93;;;4.93;;
20038;SDS011;21737;42.868;25.320;2022-11-20T00:53:23;11.60;;;5.13;;
20038;SDS011;21737;42.868;25.320;2022-11-20T00:56:25;14.97;;;6.00;;
20038;SDS011;21737;42.868;25.320;2022-11-20T00:59:27;12.53;;;5.70;;
20038;SDS011;21737;42.868;25.320;2022-11-20T01:02:28;15.47;;;6.03;;
20038;SDS011;21737;42.868;25.320;2022-11-20T01:05:33;13.57;;;4.70;;
20038;SDS011;21737;42.868;25.320;2022-11-20T01:08:35;14.20;;;4.83;;
20038;SDS011;21737;42.868;25.320;2022-11-20T01:11:38;11.10;;;5.13;;
20038;SDS011;21737;42.868;25.320;2022-11-20T01:14:40;13.17;;;4.50;;
20038;SDS011;21737;42.868;25.320;2022-11-20T01:17:41;12.70;;;4.50;;
20038;SDS011;21737;42.868;25.320;2022-11-20T01:20:43;11.63;;;4.40;;
20038;SDS011;21737;42.868;25.320;2022-11-20T01:23:45;11.03;;;4.67;;
20038;SDS011;21737;42.868;25.320;2022-11-20T01:26:47;14.10;;;4.67;;
20038;SDS011;21737;42.868;25.320;2022-11-20T01:29:49;12.67;;;4.87;;
20038;SDS011;21737;42.868;25.320;2022-11-20T01:32:51;12.13;;;4.60;;
20038;SDS011;21737;42.868;25.320;2022-11-20T01:35:52;13.77;;;4.77;;
20038;SDS011;21737;42.868;25.320;2022-11-20T01:38:55;15.97;;;4.97;;
20038;SDS011;21737;42.868;25.320;2022-11-20T01:41:57;11.73;;;4.63;;
20038;SDS011;21737;42.868;25.320;2022-11-20T01:48:38;10.83;;;4.97;;
20038;SDS011;21737;42.868;25.320;2022-11-20T01:51:49;10.47;;;5.10;;
20038;SDS011;21737;42.868;25.320;2022-11-20T01:54:56;12.00;;;5.03;;
20038;SDS011;21737;42.868;25.320;2022-11-20T01:58:01;14.60;;;5.53;;
20038;SDS011;21737;42.868;25.320;2022-11-20T02:01:03;12.63;;;5.87;;
20038;SDS011;21737;42.868;25.320;2022-11-20T02:04:05;13.57;;;5.00;;
20038;SDS011;21737;42.868;25.320;2022-11-20T02:07:08;13.73;;;5.20;;
20038;SDS011;21737;42.868;25.320;2022-11-20T02:10:11;10.63;;;4.87;;
20038;SDS011;21737;42.868;25.320;2022-11-20T02:13:12;12.93;;;5.23;;
20038;SDS011;21737;42.868;25.320;2022-11-20T02:16:39;9.30;;;4.93;;
20038;SDS011;21737;42.868;25.320;2022-11-20T02:19:41;11.80;;;5.47;;
20038;SDS011;21737;42.868;25.320;2022-11-20T02:23:05;11.37;;;5.37;;
20038;SDS011;21737;42.868;25.320;2022-11-20T02:26:05;10.63;;;4.33;;
20038;SDS011;21737;42.868;25.320;2022-11-20T02:29:08;29.17;;;9.53;;
20038;SDS011;21737;42.868;25.320;2022-11-20T02:32:20;31.00;;;9.00;;
20038;SDS011;21737;42.868;25.320;2022-11-20T02:38:23;16.30;;;5.37;;
20038;SDS011;21737;42.868;25.320;2022-11-20T02:41:35;11.90;;;5.23;;
20038;SDS011;21737;42.868;25.320;2022-11-20T02:44:37;14.13;;;4.83;;
20038;SDS011;21737;42.868;25.320;2022-11-20T02:47:38;12.87;;;4.70;;
20038;SDS011;21737;42.868;25.320;2022-11-20T02:50:40;12.33;;;5.17;;
20038;SDS011;21737;42.868;25.320;2022-11-20T02:53:42;13.93;;;4.60;;
20038;SDS011;21737;42.868;25.320;2022-11-20T02:56:43;11.67;;;4.33;;
20038;SDS011;21737;42.868;25.320;2022-11-20T02:59:45;12.10;;;4.30;;
20038;SDS011;21737;42.868;25.320;2022-11-20T03:02:46;9.80;;;4.17;;
20038;SDS011;21737;42.868;25.320;2022-11-20T03:05:48;10.90;;;4.07;;
20038;SDS011;21737;42.868;25.320;2022-11-20T03:08:50;10.67;;;3.83;;
20038;SDS011;21737;42.868;25.320;2022-11-20T03:11:51;10.23;;;4.33;;
20038;SDS011;21737;42.868;25.320;2022-11-20T03:14:53;11.50;;;4.43;;
20038;SDS011;21737;42.868;25.320;2022-11-20T03:17:55;8.30;;;3.87;;
20038;SDS011;21737;42.868;25.320;2022-11-20T03:20:57;9.80;;;3.77;;
20038;SDS011;21737;42.868;25.320;2022-11-20T03:24:00;12.50;;;4.23;;
20038;SDS011;21737;42.868;25.320;2022-11-20T03:27:02;9.80;;;3.90;;
20038;SDS011;21737;42.868;25.320;2022-11-20T03:30:03;10.20;;;3.90;;
20038;SDS011;21737;42.868;25.320;2022-11-20T03:33:06;10.63;;;3.67;;
20038;SDS011;21737;42.868;25.320;2022-11-20T03:36:08;15.47;;;4.20;;
20038;SDS011;21737;42.868;25.320;2022-11-20T03:39:10;9.00;;;3.40;;
20038;SDS011;21737;42.868;25.320;2022-11-20T03:42:12;14.00;;;3.63;;
20038;SDS011;21737;42.868;25.320;2022-11-20T03:45:32;9.63;;;3.60;;
20038;SDS011;21737;42.868;25.320;2022-11-20T03:48:34;10.30;;;3.87;;
20038;SDS011;21737;42.868;25.320;2022-11-20T03:51:36;10.20;;;3.97;;
20038;SDS011;21737;42.868;25.320;2022-11-20T03:54:37;11.57;;;4.20;;
20038;SDS011;21737;42.868;25.320;2022-11-20T03:57:39;9.80;;;3.97;;
20038;SDS011;21737;42.868;25.320;2022-11-20T04:00:41;8.23;;;3.00;;
20038;SDS011;21737;42.868;25.320;2022-11-20T04:03:43;10.80;;;3.47;;
20038;SDS011;21737;42.868;25.320;2022-11-20T04:06:45;12.37;;;3.53;;
20038;SDS011;21737;42.868;25.320;2022-11-20T04:09:46;12.53;;;3.90;;
20038;SDS011;21737;42.868;25.320;2022-11-20T04:12:48;11.57;;;3.40;;
20038;SDS011;21737;42.868;25.320;2022-11-20T04:15:49;13.00;;;3.77;;
20038;SDS011;21737;42.868;25.320;2022-11-20T04:18:55;9.93;;;3.83;;
20038;SDS011;21737;42.868;25.320;2022-11-20T04:21:56;8.90;;;3.97;;
20038;SDS011;21737;42.868;25.320;2022-11-20T04:24:58;9.37;;;3.17;;
20038;SDS011;21737;42.868;25.320;2022-11-20T04:28:00;11.23;;;3.80;;
20038;SDS011;21737;42.868;25.320;2022-11-20T04:31:09;13.77;;;3.50;;
20038;SDS011;21737;42.868;25.320;2022-11-20T04:34:11;12.50;;;3.53;;
20038;SDS011;21737;42.868;25.320;2022-11-20T04:37:13;12.40;;;3.80;;
20038;SDS011;21737;42.868;25.320;2022-11-20T04:40:14;9.80;;;3.67;;
20038;SDS011;21737;42.868;25.320;2022-11-20T04:43:16;10.13;;;3.60;;
20038;SDS011;21737;42.868;25.320;2022-11-20T04:46:18;11.00;;;3.53;;
20038;SDS011;21737;42.868;25.320;2022-11-20T04:49:20;8.20;;;3.80;;
20038;SDS011;21737;42.868;25.320;2022-11-20T04:52:22;13.37;;;6.10;;
20038;SDS011;21737;42.868;25.320;2022-11-20T04:55:24;11.83;;;3.73;;
20038;SDS011;21737;42.868;25.320;2022-11-20T04:58:25;9.27;;;3.00;;
20038;SDS011;21737;42.868;25.320;2022-11-20T05:01:27;9.97;;;2.97;;
20038;SDS011;21737;42.868;25.320;2022-11-20T05:04:28;11.60;;;3.50;;
20038;SDS011;21737;42.868;25.320;2022-11-20T05:07:30;8.47;;;2.80;;
20038;SDS011;21737;42.868;25.320;2022-11-20T05:10:32;9.70;;;3.10;;
20038;SDS011;21737;42.868;25.320;2022-11-20T05:13:33;10.40;;;3.07;;
20038;SDS011;21737;42.868;25.320;2022-11-20T05:16:35;10.13;;;3.20;;
20038;SDS011;21737;42.868;25.320;2022-11-20T05:19:40;7.93;;;2.90;;
20038;SDS011;21737;42.868;25.320;2022-11-20T05:22:41;8.03;;;3.03;;
20038;SDS011;21737;42.868;25.320;2022-11-20T05:25:43;8.27;;;3.40;;
20038;SDS011;21737;42.868;25.320;2022-11-20T05:28:45;9.80;;;3.03;;
20038;SDS011;21737;42.868;25.320;2022-11-20T05:31:46;9.43;;;3.10;;
20038;SDS011;21737;42.868;25.320;2022-11-20T05:34:48;7.47;;;2.80;;
20038;SDS011;21737;42.868;25.320;2022-11-20T05:37:50;11.63;;;3.50;;
20038;SDS011;21737;42.868;25.320;2022-11-20T05:40:51;6.03;;;2.73;;
20038;SDS011;21737;42.868;25.320;2022-11-20T05:43:53;7.93;;;2.77;;
20038;SDS011;21737;42.868;25.320;2022-11-20T05:46:57;7.40;;;3.00;;
20038;SDS011;21737;42.868;25.320;2022-11-20T05:49:59;10.17;;;2.83;;
20038;SDS011;21737;42.868;25.320;2022-11-20T05:53:00;8.30;;;2.80;;
20038;SDS011;21737;42.868;25.320;2022-11-20T05:56:06;8.33;;;2.87;;
20038;SDS011;21737;42.868;25.320;2022-11-20T05:59:08;9.53;;;3.47;;
20038;SDS011;21737;42.868;25.320;2022-11-20T06:02:10;12.53;;;3.23;;
20038;SDS011;21737;42.868;25.320;2022-11-20T06:05:12;9.80;;;2.90;;
20038;SDS011;21737;42.868;25.320;2022-11-20T06:08:13;6.63;;;3.00;;
20038;SDS011;21737;42.868;25.320;2022-11-20T06:11:15;8.00;;;3.27;;
20038;SDS011;21737;42.868;25.320;2022-11-20T06:14:17;11.00;;;3.13;;
20038;SDS011;21737;42.868;25.320;2022-11-20T06:17:19;11.30;;;3.23;;
20038;SDS011;21737;42.868;25.320;2022-11-20T06:20:21;6.97;;;2.90;;
20038;SDS011;21737;42.868;25.320;2022-11-20T06:23:22;11.10;;;3.33;;
20038;SDS011;21737;42.868;25.320;2022-11-20T06:26:25;11.13;;;2.77;;
20038;SDS011;21737;42.868;25.320;2022-11-20T06:29:27;7.40;;;2.83;;
20038;SDS011;21737;42.868;25.320;2022-11-20T06:32:34;8.77;;;2.70;;
20038;SDS011;21737;42.868;25.320;2022-11-20T06:35:35;8.40;;;2.93;;
20038;SDS011;21737;42.868;25.320;2022-11-20T06:38:37;7.90;;;2.80;;
20038;SDS011;21737;42.868;25.320;2022-11-20T06:41:39;6.47;;;2.10;;
20038;SDS011;21737;42.868;25.320;2022-11-20T06:44:41;4.97;;;2.67;;
20038;SDS011;21737;42.868;25.320;2022-11-20T06:47:42;11.53;;;2.53;;
20038;SDS011;21737;42.868;25.320;2022-11-20T06:50:44;6.83;;;3.07;;
20038;SDS011;21737;42.868;25.320;2022-11-20T06:53:46;7.87;;;2.90;;
20038;SDS011;21737;42.868;25.320;2022-11-20T06:56:47;8.20;;;3.07;;
20038;SDS011;21737;42.868;25.320;2022-11-20T06:59:49;5.40;;;2.47;;
20038;SDS011;21737;42.868;25.320;2022-11-20T07:02:51;9.23;;;2.30;;
20038;SDS011;21737;42.868;25.320;2022-11-20T07:05:56;8.53;;;2.73;;
20038;SDS011;21737;42.868;25.320;2022-11-20T07:08:57;11.13;;;2.93;;
20038;SDS011;21737;42.868;25.320;2022-11-20T07:11:59;5.17;;;2.50;;
20038;SDS011;21737;42.868;25.320;2022-11-20T07:15:01;11.97;;;3.60;;
20038;SDS011;21737;42.868;25.320;2022-11-20T07:18:03;8.43;;;2.60;;
20038;SDS011;21737;42.868;25.320;2022-11-20T07:21:08;9.30;;;2.73;;
20038;SDS011;21737;42.868;25.320;2022-11-20T07:24:11;9.37;;;2.90;;
20038;SDS011;21737;42.868;25.320;2022-11-20T07:27:12;8.53;;;3.03;;
20038;SDS011;21737;42.868;25.320;2022-11-20T07:30:15;8.20;;;2.97;;
20038;SDS011;21737;42.868;25.320;2022-11-20T07:33:16;7.67;;;3.10;;
20038;SDS011;21737;42.868;25.320;2022-11-20T07:36:18;10.10;;;4.67;;
20038;SDS011;21737;42.868;25.320;2022-11-20T07:39:19;11.20;;;3.80;;
20038;SDS011;21737;42.868;25.320;2022-11-20T07:42:22;7.13;;;3.10;;
20038;SDS011;21737;42.868;25.320;2022-11-20T07:45:25;9.37;;;2.90;;
20038;SDS011;21737;42.868;25.320;2022-11-20T07:48:26;6.97;;;2.43;;
20038;SDS011;21737;42.868;25.320;2022-11-20T07:51:28;9.03;;;2.30;;
20038;SDS011;21737;42.868;25.320;2022-11-20T07:54:30;10.73;;;7.30;;
20038;SDS011;21737;42.868;25.320;2022-11-20T07:57:32;8.17;;;5.27;;
20038;SDS011;21737;42.868;25.320;2022-11-20T08:00:33;10.03;;;5.90;;
20038;SDS011;21737;42.868;25.320;2022-11-20T08:03:35;8.33;;;7.03;;
20038;SDS011;21737;42.868;25.320;2022-11-20T08:06:39;9.63;;;7.53;;
20038;SDS011;21737;42.868;25.320;2022-11-20T08:09:40;8.30;;;6.63;;
20038;SDS011;21737;42.868;25.320;2022-11-20T08:12:46;8.53;;;6.37;;
20038;SDS011;21737;42.868;25.320;2022-11-20T08:16:06;8.93;;;7.37;;
20038;SDS011;21737;42.868;25.320;2022-11-20T08:19:08;7.87;;;6.47;;
20038;SDS011;21737;42.868;25.320;2022-11-20T08:22:10;12.77;;;9.37;;
20038;SDS011;21737;42.868;25.320;2022-11-20T08:25:11;15.73;;;9.60;;
20038;SDS011;21737;42.868;25.320;2022-11-20T08:28:13;10.97;;;8.07;;
20038;SDS011;21737;42.868;25.320;2022-11-20T08:31:22;8.97;;;7.13;;
20038;SDS011;21737;42.868;25.320;2022-11-20T08:34:24;9.83;;;8.43;;
20038;SDS011;21737;42.868;25.320;2022-11-20T08:37:25;10.30;;;7.30;;
20038;SDS011;21737;42.868;25.320;2022-11-20T08:40:27;10.73;;;8.13;;
20038;SDS011;21737;42.868;25.320;2022-11-20T08:43:29;11.90;;;8.97;;
20038;SDS011;21737;42.868;25.320;2022-11-20T08:46:31;10.17;;;8.27;;
20038;SDS011;21737;42.868;25.320;2022-11-20T08:49:34;15.97;;;11.10;;
20038;SDS011;21737;42.868;25.320;2022-11-20T08:52:36;10.00;;;8.17;;
20038;SDS011;21737;42.868;25.320;2022-11-20T08:55:40;10.70;;;7.77;;
20038;SDS011;21737;42.868;25.320;2022-11-20T08:58:41;10.57;;;8.43;;
20038;SDS011;21737;42.868;25.320;2022-11-20T09:02:03;10.67;;;8.23;;
20038;SDS011;21737;42.868;25.320;2022-11-20T09:05:05;10.60;;;8.60;;
20038;SDS011;21737;42.868;25.320;2022-11-20T09:08:07;9.80;;;8.50;;
20038;SDS011;21737;42.868;25.320;2022-11-20T09:11:09;11.60;;;8.77;;
20038;SDS011;21737;42.868;25.320;2022-11-20T09:14:11;13.07;;;9.00;;
20038;SDS011;21737;42.868;25.320;2022-11-20T09:17:12;13.47;;;10.73;;
20038;SDS011;21737;42.868;25.320;2022-11-20T09:20:16;13.73;;;10.00;;
20038;SDS011;21737;42.868;25.320;2022-11-20T09:23:17;12.70;;;10.67;;
20038;SDS011;21737;42.868;25.320;2022-11-20T09:26:19;14.97;;;10.33;;
20038;SDS011;21737;42.868;25.320;2022-11-20T09:29:21;14.20;;;10.83;;
20038;SDS011;21737;42.868;25.320;2022-11-20T09:32:23;12.27;;;9.77;;
20038;SDS011;21737;42.868;25.320;2022-11-20T09:35:25;12.93;;;9.57;;
20038;SDS011;21737;42.868;25.320;2022-11-20T09:38:27;18.37;;;11.13;;
20038;SDS011;21737;42.868;25.320;2022-11-20T09:41:36;13.07;;;10.30;;
20038;SDS011;21737;42.868;25.320;2022-11-20T09:51:40;12.57;;;10.30;;
20038;SDS011;21737;42.868;25.320;2022-11-20T09:57:20;14.57;;;9.87;;
20038;SDS011;21737;42.868;25.320;2022-11-20T10:00:23;13.33;;;9.97;;
20038;SDS011;21737;42.868;25.320;2022-11-20T10:03:29;15.73;;;10.37;;
20038;SDS011;21737;42.868;25.320;2022-11-20T10:06:41;13.90;;;9.27;;
20038;SDS011;21737;42.868;25.320;2022-11-20T10:09:49;15.23;;;9.77;;
20038;SDS011;21737;42.868;25.320;2022-11-20T10:12:56;15.07;;;10.27;;
20038;SDS011;21737;42.868;25.320;2022-11-20T10:25:43;13.77;;;10.83;;
20038;SDS011;21737;42.868;25.320;2022-11-20T10:32:02;14.17;;;11.07;;
20038;SDS011;21737;42.868;25.320;2022-11-20T10:38:09;14.60;;;10.73;;
20038;SDS011;21737;42.868;25.320;2022-11-20T10:41:16;17.77;;;11.53;;
20038;SDS011;21737;42.868;25.320;2022-11-20T10:44:27;15.77;;;11.57;;
20038;SDS011;21737;42.868;25.320;2022-11-20T10:47:54;19.27;;;11.43;;
20038;SDS011;21737;42.868;25.320;2022-11-20T10:54:23;16.70;;;12.50;;
20038;SDS011;21737;42.868;25.320;2022-11-20T11:00:48;16.60;;;12.10;;
20038;SDS011;21737;42.868;25.320;2022-11-20T11:03:50;17.37;;;11.87;;
20038;SDS011;21737;42.868;25.320;2022-11-20T11:06:53;16.80;;;11.87;;
20038;SDS011;21737;42.868;25.320;2022-11-20T11:09:56;18.33;;;11.83;;
20038;SDS011;21737;42.868;25.320;2022-11-20T11:12:58;15.87;;;11.30;;
20038;SDS011;21737;42.868;25.320;2022-11-20T11:16:00;18.03;;;12.07;;
20038;SDS011;21737;42.868;25.320;2022-11-20T11:19:05;15.83;;;11.97;;
20038;SDS011;21737;42.868;25.320;2022-11-20T11:22:09;20.20;;;12.97;;
20038;SDS011;21737;42.868;25.320;2022-11-20T11:28:22;18.83;;;12.80;;
20038;SDS011;21737;42.868;25.320;2022-11-20T11:31:27;18.03;;;12.50;;
20038;SDS011;21737;42.868;25.320;2022-11-20T11:34:29;18.87;;;12.33;;
20038;SDS011;21737;42.868;25.320;2022-11-20T11:37:34;18.00;;;12.20;;
20038;SDS011;21737;42.868;25.320;2022-11-20T11:40:37;15.60;;;11.97;;
20038;SDS011;21737;42.868;25.320;2022-11-20T11:43:39;15.40;;;11.43;;
20038;SDS011;21737;42.868;25.320;2022-11-20T11:47:00;21.23;;;13.03;;
20038;SDS011;21737;42.868;25.320;2022-11-20T11:53:12;18.07;;;12.23;;
20038;SDS011;21737;42.868;25.320;2022-11-20T11:56:14;18.37;;;12.23;;
20038;SDS011;21737;42.868;25.320;2022-11-20T11:59:20;17.07;;;12.50;;
20038;SDS011;21737;42.868;25.320;2022-11-20T12:02:29;20.27;;;12.93;;
20038;SDS011;21737;42.868;25.320;2022-11-20T12:12:09;17.17;;;10.17;;
20038;SDS011;21737;42.868;25.320;2022-11-20T12:15:11;18.60;;;12.20;;
20038;SDS011;21737;42.868;25.320;2022-11-20T12:18:15;18.13;;;12.27;;
20038;SDS011;21737;42.868;25.320;2022-11-20T12:24:37;20.10;;;12.63;;
20038;SDS011;21737;42.868;25.320;2022-11-20T12:31:09;17.73;;;12.00;;
20038;SDS011;21737;42.868;25.320;2022-11-20T12:43:27;20.83;;;14.33;;
20038;SDS011;21737;42.868;25.320;2022-11-20T12:46:50;18.93;;;13.00;;
20038;SDS011;21737;42.868;25.320;2022-11-20T12:56:26;17.10;;;13.20;;
20038;SDS011;21737;42.868;25.320;2022-11-20T12:59:33;19.73;;;14.00;;
20038;SDS011;21737;42.868;25.320;2022-11-20T13:06:30;23.07;;;15.30;;
20038;SDS011;21737;42.868;25.320;2022-11-20T13:09:24;17.43;;;13.33;;
20038;SDS011;21737;42.868;25.320;2022-11-20T13:15:43;20.00;;;13.77;;
20038;SDS011;21737;42.868;25.320;2022-11-20T13:18:46;20.30;;;13.93;;
20038;SDS011;21737;42.868;25.320;2022-11-20T13:21:49;18.97;;;13.23;;
20038;SDS011;21737;42.868;25.320;2022-11-20T13:24:52;19.17;;;13.40;;
20038;SDS011;21737;42.868;25.320;2022-11-20T13:27:54;18.67;;;13.57;;
20038;SDS011;21737;42.868;25.320;2022-11-20T13:30:57;18.97;;;14.00;;
20038;SDS011;21737;42.868;25.320;2022-11-20T13:34:00;20.27;;;14.07;;
20038;SDS011;21737;42.868;25.320;2022-11-20T13:37:02;20.33;;;13.47;;
20038;SDS011;21737;42.868;25.320;2022-11-20T13:43:22;20.87;;;14.13;;
20038;SDS011;21737;42.868;25.320;2022-11-20T13:46:34;21.53;;;15.93;;
20038;SDS011;21737;42.868;25.320;2022-11-20T13:49:39;19.90;;;14.70;;
20038;SDS011;21737;42.868;25.320;2022-11-20T13:53:00;22.53;;;16.90;;
20038;SDS011;21737;42.868;25.320;2022-11-20T14:02:19;36.40;;;21.60;;
20038;SDS011;21737;42.868;25.320;2022-11-20T14:05:22;37.00;;;20.33;;
20038;SDS011;21737;42.868;25.320;2022-11-20T14:08:27;32.10;;;21.57;;
20038;SDS011;21737;42.868;25.320;2022-11-20T14:11:31;37.37;;;22.60;;
20038;SDS011;21737;42.868;25.320;2022-11-20T14:14:34;37.13;;;23.20;;
20038;SDS011;21737;42.868;25.320;2022-11-20T14:17:37;34.10;;;22.87;;
20038;SDS011;21737;42.868;25.320;2022-11-20T14:20:39;26.23;;;17.87;;
20038;SDS011;21737;42.868;25.320;2022-11-20T14:23:42;25.37;;;18.70;;
20038;SDS011;21737;42.868;25.320;2022-11-20T14:26:44;24.07;;;15.93;;
20038;SDS011;21737;42.868;25.320;2022-11-20T14:29:47;20.47;;;15.30;;
20038;SDS011;21737;42.868;25.320;2022-11-20T14:32:50;20.87;;;15.13;;
20038;SDS011;21737;42.868;25.320;2022-11-20T14:35:56;19.63;;;14.67;;
20038;SDS011;21737;42.868;25.320;2022-11-20T14:38:58;21.77;;;15.10;;
20038;SDS011;21737;42.868;25.320;2022-11-20T14:42:00;20.10;;;14.47;;
20038;SDS011;21737;42.868;25.320;2022-11-20T14:45:01;22.50;;;15.10;;
20038;SDS011;21737;42.868;25.320;2022-11-20T14:48:04;25.17;;;16.47;;
20038;SDS011;21737;42.868;25.320;2022-11-20T14:51:08;22.23;;;15.20;;
20038;SDS011;21737;42.868;25.320;2022-11-20T15:00:33;25.37;;;16.67;;
20038;SDS011;21737;42.868;25.320;2022-11-20T15:03:36;19.90;;;15.00;;
20038;SDS011;21737;42.868;25.320;2022-11-20T15:06:38;27.60;;;19.67;;
20038;SDS011;21737;42.868;25.320;2022-11-20T15:10:06;26.30;;;18.57;;
20038;SDS011;21737;42.868;25.320;2022-11-20T15:13:12;18.87;;;14.33;;
20038;SDS011;21737;42.868;25.320;2022-11-20T15:16:18;22.30;;;15.87;;
20038;SDS011;21737;42.868;25.320;2022-11-20T15:19:23;32.97;;;20.43;;
20038;SDS011;21737;42.868;25.320;2022-11-20T15:22:26;33.20;;;22.60;;
20038;SDS011;21737;42.868;25.320;2022-11-20T15:25:27;43.63;;;27.73;;
20038;SDS011;21737;42.868;25.320;2022-11-20T15:31:38;34.30;;;23.90;;
20038;SDS011;21737;42.868;25.320;2022-11-20T15:34:42;37.13;;;25.77;;
20038;SDS011;21737;42.868;25.320;2022-11-20T15:37:44;36.33;;;24.93;;
20038;SDS011;21737;42.868;25.320;2022-11-20T15:40:46;27.97;;;19.60;;
20038;SDS011;21737;42.868;25.320;2022-11-20T15:43:47;28.37;;;19.37;;
20038;SDS011;21737;42.868;25.320;2022-11-20T15:46:49;26.17;;;18.87;;
20038;SDS011;21737;42.868;25.320;2022-11-20T15:49:51;26.13;;;17.10;;
20038;SDS011;21737;42.868;25.320;2022-11-20T15:52:52;19.37;;;14.53;;
20038;SDS011;21737;42.868;25.320;2022-11-20T15:55:54;20.07;;;14.43;;
20038;SDS011;21737;42.868;25.320;2022-11-20T15:58:55;23.60;;;17.27;;
20038;SDS011;21737;42.868;25.320;2022-11-20T16:01:57;28.10;;;19.07;;
20038;SDS011;21737;42.868;25.320;2022-11-20T16:04:59;21.03;;;15.47;;
20038;SDS011;21737;42.868;25.320;2022-11-20T16:08:00;19.47;;;13.67;;
20038;SDS011;21737;42.868;25.320;2022-11-20T16:11:17;60.80;;;30.00;;
20038;SDS011;21737;42.868;25.320;2022-11-20T16:14:19;39.20;;;23.33;;
20038;SDS011;21737;42.868;25.320;2022-11-20T16:17:39;25.23;;;16.10;;
20038;SDS011;21737;42.868;25.320;2022-11-20T16:20:48;26.57;;;19.10;;
20038;SDS011;21737;42.868;25.320;2022-11-20T16:23:50;34.87;;;24.90;;
20038;SDS011;21737;42.868;25.320;2022-11-20T16:26:52;27.30;;;17.87;;
20038;SDS011;21737;42.868;25.320;2022-11-20T16:29:54;45.93;;;33.33;;
20038;SDS011;21737;42.868;25.320;2022-11-20T16:32:56;33.27;;;23.13;;
20038;SDS011;21737;42.868;25.320;2022-11-20T16:35:57;42.57;;;25.67;;
20038;SDS011;21737;42.868;25.320;2022-11-20T16:38:59;42.23;;;23.30;;
20038;SDS011;21737;42.868;25.320;2022-11-20T16:42:04;44.03;;;24.53;;
20038;SDS011;21737;42.868;25.320;2022-11-20T16:45:06;40.70;;;23.37;;
20038;SDS011;21737;42.868;25.320;2022-11-20T16:48:13;39.13;;;23.83;;
20038;SDS011;21737;42.868;25.320;2022-11-20T16:51:15;33.17;;;21.53;;
20038;SDS011;21737;42.868;25.320;2022-11-20T16:54:17;40.30;;;24.73;;
20038;SDS011;21737;42.868;25.320;2022-11-20T16:57:21;42.50;;;24.50;;
20038;SDS011;21737;42.868;25.320;2022-11-20T17:00:23;37.80;;;24.60;;
20038;SDS011;21737;42.868;25.320;2022-11-20T17:03:25;37.43;;;25.63;;
20038;SDS011;21737;42.868;25.320;2022-11-20T17:06:28;36.43;;;23.83;;
20038;SDS011;21737;42.868;25.320;2022-11-20T17:09:30;39.03;;;26.50;;
20038;SDS011;21737;42.868;25.320;2022-11-20T17:12:31;34.10;;;24.13;;
20038;SDS011;21737;42.868;25.320;2022-11-20T17:15:33;50.77;;;34.70;;
20038;SDS011;21737;42.868;25.320;2022-11-20T17:18:35;150.53;;;59.03;;
20038;SDS011;21737;42.868;25.320;2022-11-20T17:21:36;113.83;;;51.97;;
20038;SDS011;21737;42.868;25.320;2022-11-20T17:24:38;37.47;;;25.50;;
20038;SDS011;21737;42.868;25.320;2022-11-20T17:27:40;42.70;;;28.17;;
20038;SDS011;21737;42.868;25.320;2022-11-20T17:30:41;34.50;;;24.93;;
20038;SDS011;21737;42.868;25.320;2022-11-20T17:33:44;81.50;;;48.97;;
20038;SDS011;21737;42.868;25.320;2022-11-20T17:36:46;47.50;;;30.93;;
20038;SDS011;21737;42.868;25.320;2022-11-20T17:39:48;42.37;;;30.10;;
20038;SDS011;21737;42.868;25.320;2022-11-20T17:42:49;56.07;;;42.07;;
20038;SDS011;21737;42.868;25.320;2022-11-20T17:45:51;54.07;;;34.03;;
20038;SDS011;21737;42.868;25.320;2022-11-20T17:48:53;48.60;;;33.53;;
20038;SDS011;21737;42.868;25.320;2022-11-20T17:51:55;53.27;;;34.93;;
20038;SDS011;21737;42.868;25.320;2022-11-20T17:54:57;52.60;;;36.07;;
20038;SDS011;21737;42.868;25.320;2022-11-20T17:57:58;75.43;;;45.80;;
20038;SDS011;21737;42.868;25.320;2022-11-20T18:01:04;47.93;;;33.23;;
20038;SDS011;21737;42.868;25.320;2022-11-20T18:04:05;37.70;;;26.60;;
20038;SDS011;21737;42.868;25.320;2022-11-20T18:07:07;29.27;;;21.47;;
20038;SDS011;21737;42.868;25.320;2022-11-20T18:10:09;36.20;;;25.63;;
20038;SDS011;21737;42.868;25.320;2022-11-20T18:13:11;36.00;;;25.17;;
20038;SDS011;21737;42.868;25.320;2022-11-20T18:16:13;27.50;;;21.63;;
20038;SDS011;21737;42.868;25.320;2022-11-20T18:19:16;32.93;;;24.03;;
20038;SDS011;21737;42.868;25.320;2022-11-20T18:22:19;28.57;;;21.97;;
20038;SDS011;21737;42.868;25.320;2022-11-20T18:25:20;39.57;;;28.67;;
20038;SDS011;21737;42.868;25.320;2022-11-20T18:28:22;25.23;;;18.40;;
20038;SDS011;21737;42.868;25.320;2022-11-20T18:31:30;20.37;;;15.60;;
20038;SDS011;21737;42.868;25.320;2022-11-20T18:34:31;25.53;;;15.90;;
20038;SDS011;21737;42.868;25.320;2022-11-20T18:37:33;20.13;;;13.23;;
20038;SDS011;21737;42.868;25.320;2022-11-20T18:40:35;19.33;;;12.40;;
20038;SDS011;21737;42.868;25.320;2022-11-20T18:43:37;14.37;;;10.00;;
20038;SDS011;21737;42.868;25.320;2022-11-20T18:46:59;15.90;;;11.17;;
20038;SDS011;21737;42.868;25.320;2022-11-20T18:50:02;12.60;;;8.57;;
20038;SDS011;21737;42.868;25.320;2022-11-20T18:53:04;16.17;;;9.87;;
20038;SDS011;21737;42.868;25.320;2022-11-20T18:56:06;14.57;;;9.47;;
20038;SDS011;21737;42.868;25.320;2022-11-20T18:59:11;17.13;;;10.60;;
20038;SDS011;21737;42.868;25.320;2022-11-20T19:02:13;21.07;;;13.67;;
20038;SDS011;21737;42.868;25.320;2022-11-20T19:05:15;23.57;;;14.60;;
20038;SDS011;21737;42.868;25.320;2022-11-20T19:08:17;48.33;;;29.40;;
20038;SDS011;21737;42.868;25.320;2022-11-20T19:11:24;21.37;;;14.60;;
20038;SDS011;21737;42.868;25.320;2022-11-20T19:14:29;43.20;;;25.93;;
20038;SDS011;21737;42.868;25.320;2022-11-20T19:17:31;22.47;;;15.07;;
20038;SDS011;21737;42.868;25.320;2022-11-20T19:20:33;20.93;;;14.80;;
20038;SDS011;21737;42.868;25.320;2022-11-20T19:23:36;23.10;;;15.57;;
20038;SDS011;21737;42.868;25.320;2022-11-20T19:26:38;28.80;;;19.73;;
20038;SDS011;21737;42.868;25.320;2022-11-20T19:29:43;28.87;;;20.50;;